sensor_id;sensor_type;location;lat;lon;timestamp;P1;durP1;ratioP1;P2;durP2;ratioP2
46781;SDS011;32541;46.298;11.506;2022-12-07T00:01:48;2.80;;;1.00;;
46781;SDS011;32541;46.298;11.506;2022-12-07T00:04:17;2.07;;;0.77;;
46781;SDS011;32541;46.298;11.506;2022-12-07T00:09:43;1.93;;;0.80;;
46781;SDS011;32541;46.298;11.506;2022-12-07T00:12:16;2.97;;;0.70;;
46781;SDS011;32541;46.298;11.506;2022-12-07T00:14:42;1.90;;;1.00;;
46781;SDS011;32541;46.298;11.506;2022-12-07T00:17:18;3.47;;;0.80;;
46781;SDS011;32541;46.298;11.506;2022-12-07T00:20:01;1.20;;;0.63;;
46781;SDS011;32541;46.298;11.506;2022-12-07T00:22:32;1.13;;;0.50;;
46781;SDS011;32541;46.298;11.506;2022-12-07T00:25:01;3.83;;;1.17;;
46781;SDS011;32541;46.298;11.506;2022-12-07T00:27:35;2.10;;;1.10;;
46781;SDS011;32541;46.298;11.506;2022-12-07T00:30:04;3.20;;;1.10;;
46781;SDS011;32541;46.298;11.506;2022-12-07T00:32:35;2.17;;;1.00;;
46781;SDS011;32541;46.298;11.506;2022-12-07T00:35:09;3.03;;;1.27;;
46781;SDS011;32541;46.298;11.506;2022-12-07T00:37:48;1.07;;;0.77;;
46781;SDS011;32541;46.298;11.506;2022-12-07T00:43:04;1.87;;;0.80;;
46781;SDS011;32541;46.298;11.506;2022-12-07T00:45:30;1.27;;;0.53;;
46781;SDS011;32541;46.298;11.506;2022-12-07T00:47:57;2.53;;;1.03;;
46781;SDS011;32541;46.298;11.506;2022-12-07T00:50:32;1.27;;;0.50;;
46781;SDS011;32541;46.298;11.506;2022-12-07T00:52:59;3.03;;;0.90;;
46781;SDS011;32541;46.298;11.506;2022-12-07T00:55:37;1.50;;;0.73;;
46781;SDS011;32541;46.298;11.506;2022-12-07T00:58:03;1.30;;;0.50;;
46781;SDS011;32541;46.298;11.506;2022-12-07T01:00:31;3.27;;;0.70;;
46781;SDS011;32541;46.298;11.506;2022-12-07T01:02:58;7.27;;;0.77;;
46781;SDS011;32541;46.298;11.506;2022-12-07T01:05:30;1.20;;;0.60;;
46781;SDS011;32541;46.298;11.506;2022-12-07T01:08:10;1.73;;;0.50;;
46781;SDS011;32541;46.298;11.506;2022-12-07T01:10:38;1.27;;;0.60;;
46781;SDS011;32541;46.298;11.506;2022-12-07T01:13:06;0.67;;;0.50;;
46781;SDS011;32541;46.298;11.506;2022-12-07T01:18:47;1.77;;;0.53;;
46781;SDS011;32541;46.298;11.506;2022-12-07T01:21:24;1.20;;;0.63;;
46781;SDS011;32541;46.298;11.506;2022-12-07T01:24:37;0.93;;;0.40;;
46781;SDS011;32541;46.298;11.506;2022-12-07T01:27:26;0.70;;;0.30;;
46781;SDS011;32541;46.298;11.506;2022-12-07T01:29:51;1.43;;;0.60;;
46781;SDS011;32541;46.298;11.506;2022-12-07T01:32:22;0.70;;;0.33;;
46781;SDS011;32541;46.298;11.506;2022-12-07T01:35:28;1.27;;;0.50;;
46781;SDS011;32541;46.298;11.506;2022-12-07T01:37:53;1.23;;;0.60;;
46781;SDS011;32541;46.298;11.506;2022-12-07T01:40:22;0.87;;;0.40;;
46781;SDS011;32541;46.298;11.506;2022-12-07T01:43:02;1.77;;;0.60;;
46781;SDS011;32541;46.298;11.506;2022-12-07T01:48:10;1.17;;;0.60;;
46781;SDS011;32541;46.298;11.506;2022-12-07T01:50:45;4.53;;;0.50;;
46781;SDS011;32541;46.298;11.506;2022-12-07T01:53:25;3.20;;;0.60;;
46781;SDS011;32541;46.298;11.506;2022-12-07T01:56:16;1.13;;;0.70;;
46781;SDS011;32541;46.298;11.506;2022-12-07T01:58:57;1.08;;;0.70;;
46781;SDS011;32541;46.298;11.506;2022-12-07T02:01:36;0.37;;;0.30;;
46781;SDS011;32541;46.298;11.506;2022-12-07T02:07:02;2.10;;;0.80;;
46781;SDS011;32541;46.298;11.506;2022-12-07T02:09:30;0.80;;;0.63;;
46781;SDS011;32541;46.298;11.506;2022-12-07T02:11:55;3.60;;;0.53;;
46781;SDS011;32541;46.298;11.506;2022-12-07T02:14:35;1.03;;;0.47;;
46781;SDS011;32541;46.298;11.506;2022-12-07T02:17:07;1.80;;;0.43;;
46781;SDS011;32541;46.298;11.506;2022-12-07T02:20:13;2.37;;;0.40;;
46781;SDS011;32541;46.298;11.506;2022-12-07T02:31:45;1.00;;;0.40;;
46781;SDS011;32541;46.298;11.506;2022-12-07T02:37:09;5.35;;;0.60;;
46781;SDS011;32541;46.298;11.506;2022-12-07T02:39:45;0.87;;;0.77;;
46781;SDS011;32541;46.298;11.506;2022-12-07T02:42:17;1.47;;;0.40;;
46781;SDS011;32541;46.298;11.506;2022-12-07T02:44:48;2.60;;;0.57;;
46781;SDS011;32541;46.298;11.506;2022-12-07T02:47:16;0.67;;;0.50;;
46781;SDS011;32541;46.298;11.506;2022-12-07T02:49:43;1.97;;;0.60;;
46781;SDS011;32541;46.298;11.506;2022-12-07T02:52:09;2.80;;;0.63;;
46781;SDS011;32541;46.298;11.506;2022-12-07T02:54:34;1.40;;;0.60;;
46781;SDS011;32541;46.298;11.506;2022-12-07T02:57:22;1.07;;;0.40;;
46781;SDS011;32541;46.298;11.506;2022-12-07T03:02:50;3.13;;;0.87;;
46781;SDS011;32541;46.298;11.506;2022-12-07T03:05:36;3.00;;;1.00;;
46781;SDS011;32541;46.298;11.506;2022-12-07T03:08:24;0.67;;;0.30;;
46781;SDS011;32541;46.298;11.506;2022-12-07T03:11:13;2.07;;;0.50;;
46781;SDS011;32541;46.298;11.506;2022-12-07T03:13:48;0.70;;;0.47;;
46781;SDS011;32541;46.298;11.506;2022-12-07T03:16:20;1.13;;;0.43;;
46781;SDS011;32541;46.298;11.506;2022-12-07T03:19:15;2.07;;;0.77;;
46781;SDS011;32541;46.298;11.506;2022-12-07T03:21:47;1.50;;;0.57;;
46781;SDS011;32541;46.298;11.506;2022-12-07T03:24:19;0.70;;;0.40;;
46781;SDS011;32541;46.298;11.506;2022-12-07T03:26:52;0.95;;;0.55;;
46781;SDS011;32541;46.298;11.506;2022-12-07T03:29:37;1.70;;;0.70;;
46781;SDS011;32541;46.298;11.506;2022-12-07T03:32:11;3.27;;;1.27;;
46781;SDS011;32541;46.298;11.506;2022-12-07T03:34:42;3.10;;;0.80;;
46781;SDS011;32541;46.298;11.506;2022-12-07T03:37:28;1.90;;;0.60;;
46781;SDS011;32541;46.298;11.506;2022-12-07T03:42:35;2.93;;;1.00;;
46781;SDS011;32541;46.298;11.506;2022-12-07T03:45:01;1.27;;;0.70;;
46781;SDS011;32541;46.298;11.506;2022-12-07T03:55:39;1.90;;;1.03;;
46781;SDS011;32541;46.298;11.506;2022-12-07T03:58:11;2.37;;;0.90;;
46781;SDS011;32541;46.298;11.506;2022-12-07T04:00:40;1.10;;;0.50;;
46781;SDS011;32541;46.298;11.506;2022-12-07T04:03:07;0.73;;;0.40;;
46781;SDS011;32541;46.298;11.506;2022-12-07T04:05:33;0.97;;;0.53;;
46781;SDS011;32541;46.298;11.506;2022-12-07T04:07:58;1.00;;;0.50;;
46781;SDS011;32541;46.298;11.506;2022-12-07T04:10:24;0.83;;;0.53;;
46781;SDS011;32541;46.298;11.506;2022-12-07T04:12:49;2.93;;;0.30;;
46781;SDS011;32541;46.298;11.506;2022-12-07T04:15:14;1.07;;;0.27;;
46781;SDS011;32541;46.298;11.506;2022-12-07T04:17:40;0.60;;;0.30;;
46781;SDS011;32541;46.298;11.506;2022-12-07T04:20:06;0.60;;;0.40;;
46781;SDS011;32541;46.298;11.506;2022-12-07T04:22:32;0.83;;;0.50;;
46781;SDS011;32541;46.298;11.506;2022-12-07T04:24:57;0.97;;;0.43;;
46781;SDS011;32541;46.298;11.506;2022-12-07T04:27:23;1.40;;;0.60;;
46781;SDS011;32541;46.298;11.506;2022-12-07T04:29:48;2.80;;;0.70;;
46781;SDS011;32541;46.298;11.506;2022-12-07T04:32:14;2.53;;;0.63;;
46781;SDS011;32541;46.298;11.506;2022-12-07T04:34:39;2.47;;;0.93;;
46781;SDS011;32541;46.298;11.506;2022-12-07T04:37:04;2.10;;;1.40;;
46781;SDS011;32541;46.298;11.506;2022-12-07T04:39:30;8.90;;;4.07;;
46781;SDS011;32541;46.298;11.506;2022-12-07T04:41:57;7.20;;;2.53;;
46781;SDS011;32541;46.298;11.506;2022-12-07T04:44:23;2.70;;;1.27;;
46781;SDS011;32541;46.298;11.506;2022-12-07T04:46:50;1.83;;;0.90;;
46781;SDS011;32541;46.298;11.506;2022-12-07T04:49:16;3.33;;;0.90;;
46781;SDS011;32541;46.298;11.506;2022-12-07T04:51:42;2.70;;;1.20;;
46781;SDS011;32541;46.298;11.506;2022-12-07T04:54:08;1.83;;;1.10;;
46781;SDS011;32541;46.298;11.506;2022-12-07T04:56:33;1.23;;;0.80;;
46781;SDS011;32541;46.298;11.506;2022-12-07T04:59:00;3.67;;;1.73;;
46781;SDS011;32541;46.298;11.506;2022-12-07T05:01:25;1.90;;;1.30;;
46781;SDS011;32541;46.298;11.506;2022-12-07T05:03:51;2.10;;;1.27;;
46781;SDS011;32541;46.298;11.506;2022-12-07T05:06:16;2.57;;;1.20;;
46781;SDS011;32541;46.298;11.506;2022-12-07T05:08:42;2.03;;;1.47;;
46781;SDS011;32541;46.298;11.506;2022-12-07T05:11:08;1.73;;;0.80;;
46781;SDS011;32541;46.298;11.506;2022-12-07T05:13:35;2.97;;;1.80;;
46781;SDS011;32541;46.298;11.506;2022-12-07T05:16:01;1.00;;;0.60;;
46781;SDS011;32541;46.298;11.506;2022-12-07T05:18:27;0.80;;;0.43;;
46781;SDS011;32541;46.298;11.506;2022-12-07T05:20:52;2.10;;;0.80;;
46781;SDS011;32541;46.298;11.506;2022-12-07T05:23:18;1.13;;;0.70;;
46781;SDS011;32541;46.298;11.506;2022-12-07T05:25:44;2.90;;;1.30;;
46781;SDS011;32541;46.298;11.506;2022-12-07T05:28:10;2.30;;;1.10;;
46781;SDS011;32541;46.298;11.506;2022-12-07T05:30:35;1.73;;;0.70;;
46781;SDS011;32541;46.298;11.506;2022-12-07T05:33:01;4.07;;;2.00;;
46781;SDS011;32541;46.298;11.506;2022-12-07T05:35:27;9.13;;;4.00;;
46781;SDS011;32541;46.298;11.506;2022-12-07T05:37:54;3.30;;;1.70;;
46781;SDS011;32541;46.298;11.506;2022-12-07T05:40:23;4.30;;;1.47;;
46781;SDS011;32541;46.298;11.506;2022-12-07T05:42:48;6.70;;;2.67;;
46781;SDS011;32541;46.298;11.506;2022-12-07T05:45:13;105.97;;;45.43;;
46781;SDS011;32541;46.298;11.506;2022-12-07T05:47:39;26.40;;;11.97;;
46781;SDS011;32541;46.298;11.506;2022-12-07T05:50:05;6.77;;;3.63;;
46781;SDS011;32541;46.298;11.506;2022-12-07T05:52:31;3.87;;;2.50;;
46781;SDS011;32541;46.298;11.506;2022-12-07T05:54:57;5.67;;;3.20;;
46781;SDS011;32541;46.298;11.506;2022-12-07T05:57:22;3.90;;;1.80;;
46781;SDS011;32541;46.298;11.506;2022-12-07T05:59:48;4.87;;;2.60;;
46781;SDS011;32541;46.298;11.506;2022-12-07T06:02:13;4.40;;;2.50;;
46781;SDS011;32541;46.298;11.506;2022-12-07T06:04:41;1.60;;;0.77;;
46781;SDS011;32541;46.298;11.506;2022-12-07T06:07:09;0.73;;;0.60;;
46781;SDS011;32541;46.298;11.506;2022-12-07T06:09:35;1.37;;;0.80;;
46781;SDS011;32541;46.298;11.506;2022-12-07T06:12:01;1.83;;;1.10;;
46781;SDS011;32541;46.298;11.506;2022-12-07T06:14:46;5.93;;;3.27;;
46781;SDS011;32541;46.298;11.506;2022-12-07T06:17:11;5.37;;;2.13;;
46781;SDS011;32541;46.298;11.506;2022-12-07T06:19:38;3.40;;;0.73;;
46781;SDS011;32541;46.298;11.506;2022-12-07T06:22:04;9.47;;;4.43;;
46781;SDS011;32541;46.298;11.506;2022-12-07T06:24:30;16.10;;;7.00;;
46781;SDS011;32541;46.298;11.506;2022-12-07T06:26:56;14.90;;;6.60;;
46781;SDS011;32541;46.298;11.506;2022-12-07T06:29:22;31.27;;;15.33;;
46781;SDS011;32541;46.298;11.506;2022-12-07T06:31:48;20.40;;;9.63;;
46781;SDS011;32541;46.298;11.506;2022-12-07T06:34:14;13.87;;;7.13;;
46781;SDS011;32541;46.298;11.506;2022-12-07T06:36:41;6.10;;;3.73;;
46781;SDS011;32541;46.298;11.506;2022-12-07T06:39:07;8.50;;;3.97;;
46781;SDS011;32541;46.298;11.506;2022-12-07T06:41:34;7.30;;;3.90;;
46781;SDS011;32541;46.298;11.506;2022-12-07T06:44:00;5.43;;;3.17;;
46781;SDS011;32541;46.298;11.506;2022-12-07T06:46:26;8.27;;;3.20;;
46781;SDS011;32541;46.298;11.506;2022-12-07T06:48:51;6.60;;;3.03;;
46781;SDS011;32541;46.298;11.506;2022-12-07T06:51:17;4.40;;;2.77;;
46781;SDS011;32541;46.298;11.506;2022-12-07T06:53:42;12.97;;;6.57;;
46781;SDS011;32541;46.298;11.506;2022-12-07T06:56:10;30.13;;;12.90;;
46781;SDS011;32541;46.298;11.506;2022-12-07T06:58:36;34.60;;;16.27;;
46781;SDS011;32541;46.298;11.506;2022-12-07T07:01:02;66.60;;;29.80;;
46781;SDS011;32541;46.298;11.506;2022-12-07T07:03:27;67.60;;;29.00;;
46781;SDS011;32541;46.298;11.506;2022-12-07T07:05:53;62.63;;;31.23;;
46781;SDS011;32541;46.298;11.506;2022-12-07T07:08:19;47.37;;;22.17;;
46781;SDS011;32541;46.298;11.506;2022-12-07T07:10:44;27.80;;;13.87;;
46781;SDS011;32541;46.298;11.506;2022-12-07T07:13:10;19.43;;;10.40;;
46781;SDS011;32541;46.298;11.506;2022-12-07T07:15:37;29.37;;;17.67;;
46781;SDS011;32541;46.298;11.506;2022-12-07T07:18:03;40.00;;;22.57;;
46781;SDS011;32541;46.298;11.506;2022-12-07T07:20:29;48.27;;;25.50;;
46781;SDS011;32541;46.298;11.506;2022-12-07T07:22:55;107.93;;;44.67;;
46781;SDS011;32541;46.298;11.506;2022-12-07T07:25:21;77.50;;;40.03;;
46781;SDS011;32541;46.298;11.506;2022-12-07T07:27:46;70.60;;;37.23;;
46781;SDS011;32541;46.298;11.506;2022-12-07T07:30:12;132.60;;;64.20;;
46781;SDS011;32541;46.298;11.506;2022-12-07T07:32:37;9.10;;;4.67;;
46781;SDS011;32541;46.298;11.506;2022-12-07T07:35:03;17.33;;;9.13;;
46781;SDS011;32541;46.298;11.506;2022-12-07T07:37:29;18.80;;;9.07;;
46781;SDS011;32541;46.298;11.506;2022-12-07T07:39:54;11.60;;;5.87;;
46781;SDS011;32541;46.298;11.506;2022-12-07T07:42:20;11.23;;;6.43;;
46781;SDS011;32541;46.298;11.506;2022-12-07T07:44:45;27.57;;;13.20;;
46781;SDS011;32541;46.298;11.506;2022-12-07T07:47:11;20.93;;;10.87;;
46781;SDS011;32541;46.298;11.506;2022-12-07T07:49:36;41.13;;;17.10;;
46781;SDS011;32541;46.298;11.506;2022-12-07T07:52:02;148.13;;;57.20;;
46781;SDS011;32541;46.298;11.506;2022-12-07T07:54:27;95.53;;;43.33;;
46781;SDS011;32541;46.298;11.506;2022-12-07T07:56:53;23.17;;;10.77;;
46781;SDS011;32541;46.298;11.506;2022-12-07T07:59:19;59.57;;;23.00;;
46781;SDS011;32541;46.298;11.506;2022-12-07T08:01:44;96.83;;;40.77;;
46781;SDS011;32541;46.298;11.506;2022-12-07T08:04:10;26.67;;;14.00;;
46781;SDS011;32541;46.298;11.506;2022-12-07T08:06:35;18.37;;;9.10;;
46781;SDS011;32541;46.298;11.506;2022-12-07T08:09:01;22.83;;;10.10;;
46781;SDS011;32541;46.298;11.506;2022-12-07T08:11:27;45.53;;;22.13;;
46781;SDS011;32541;46.298;11.506;2022-12-07T08:13:52;41.80;;;20.77;;
46781;SDS011;32541;46.298;11.506;2022-12-07T08:16:18;39.63;;;18.42;;
46781;SDS011;32541;46.298;11.506;2022-12-07T08:18:43;70.78;;;31.88;;
46781;SDS011;32541;46.298;11.506;2022-12-07T08:21:10;22.10;;;9.90;;
46781;SDS011;32541;46.298;11.506;2022-12-07T08:23:37;16.15;;;7.68;;
46781;SDS011;32541;46.298;11.506;2022-12-07T08:26:04;7.65;;;3.55;;
46781;SDS011;32541;46.298;11.506;2022-12-07T08:28:33;3.75;;;2.75;;
46781;SDS011;32541;46.298;11.506;2022-12-07T08:30:59;5.47;;;2.33;;
46781;SDS011;32541;46.298;11.506;2022-12-07T08:33:26;7.93;;;4.40;;
46781;SDS011;32541;46.298;11.506;2022-12-07T08:35:52;30.73;;;19.48;;
46781;SDS011;32541;46.298;11.506;2022-12-07T08:38:17;37.53;;;25.45;;
46781;SDS011;32541;46.298;11.506;2022-12-07T08:40:43;36.88;;;21.42;;
46781;SDS011;32541;46.298;11.506;2022-12-07T08:43:08;30.70;;;20.75;;
46781;SDS011;32541;46.298;11.506;2022-12-07T08:45:34;28.30;;;17.52;;
46781;SDS011;32541;46.298;11.506;2022-12-07T08:48:07;15.65;;;10.75;;
46781;SDS011;32541;46.298;11.506;2022-12-07T08:50:37;19.08;;;12.98;;
46781;SDS011;32541;46.298;11.506;2022-12-07T08:53:03;24.40;;;13.20;;
46781;SDS011;32541;46.298;11.506;2022-12-07T08:55:30;16.00;;;11.57;;
46781;SDS011;32541;46.298;11.506;2022-12-07T08:57:57;9.63;;;6.55;;
46781;SDS011;32541;46.298;11.506;2022-12-07T09:00:24;6.18;;;3.85;;
46781;SDS011;32541;46.298;11.506;2022-12-07T09:02:51;17.73;;;8.80;;
46781;SDS011;32541;46.298;11.506;2022-12-07T09:05:16;9.25;;;5.93;;
46781;SDS011;32541;46.298;11.506;2022-12-07T09:07:43;25.48;;;14.85;;
46781;SDS011;32541;46.298;11.506;2022-12-07T09:10:11;29.55;;;16.25;;
46781;SDS011;32541;46.298;11.506;2022-12-07T09:12:37;21.33;;;11.50;;
46781;SDS011;32541;46.298;11.506;2022-12-07T09:15:02;24.48;;;11.95;;
46781;SDS011;32541;46.298;11.506;2022-12-07T09:17:31;17.95;;;10.23;;
46781;SDS011;32541;46.298;11.506;2022-12-07T09:19:58;18.23;;;8.38;;
46781;SDS011;32541;46.298;11.506;2022-12-07T09:22:23;26.25;;;14.80;;
46781;SDS011;32541;46.298;11.506;2022-12-07T09:24:49;16.00;;;10.25;;
46781;SDS011;32541;46.298;11.506;2022-12-07T09:27:14;19.42;;;10.13;;
46781;SDS011;32541;46.298;11.506;2022-12-07T09:29:41;15.73;;;9.60;;
46781;SDS011;32541;46.298;11.506;2022-12-07T09:32:06;13.68;;;8.98;;
46781;SDS011;32541;46.298;11.506;2022-12-07T09:34:32;13.20;;;7.82;;
46781;SDS011;32541;46.298;11.506;2022-12-07T09:36:58;15.15;;;8.10;;
46781;SDS011;32541;46.298;11.506;2022-12-07T09:39:26;14.68;;;7.50;;
46781;SDS011;32541;46.298;11.506;2022-12-07T09:41:51;14.52;;;6.50;;
46781;SDS011;32541;46.298;11.506;2022-12-07T09:44:20;13.20;;;7.03;;
46781;SDS011;32541;46.298;11.506;2022-12-07T09:46:48;10.90;;;7.10;;
46781;SDS011;32541;46.298;11.506;2022-12-07T09:49:22;14.90;;;8.60;;
46781;SDS011;32541;46.298;11.506;2022-12-07T09:54:34;9.53;;;6.07;;
46781;SDS011;32541;46.298;11.506;2022-12-07T09:57:04;14.47;;;7.67;;
46781;SDS011;32541;46.298;11.506;2022-12-07T09:59:29;12.67;;;7.33;;
46781;SDS011;32541;46.298;11.506;2022-12-07T10:01:55;10.67;;;5.97;;
46781;SDS011;32541;46.298;11.506;2022-12-07T10:04:26;5.67;;;2.90;;
46781;SDS011;32541;46.298;11.506;2022-12-07T10:06:54;5.47;;;3.57;;
46781;SDS011;32541;46.298;11.506;2022-12-07T10:09:20;7.30;;;3.60;;
46781;SDS011;32541;46.298;11.506;2022-12-07T10:12:03;6.27;;;3.23;;
46781;SDS011;32541;46.298;11.506;2022-12-07T10:14:35;6.43;;;3.90;;
46781;SDS011;32541;46.298;11.506;2022-12-07T10:17:20;6.85;;;4.07;;
46781;SDS011;32541;46.298;11.506;2022-12-07T10:19:51;7.07;;;3.60;;
46781;SDS011;32541;46.298;11.506;2022-12-07T10:22:16;6.80;;;4.13;;
46781;SDS011;32541;46.298;11.506;2022-12-07T10:24:43;6.88;;;4.55;;
46781;SDS011;32541;46.298;11.506;2022-12-07T10:27:31;5.38;;;3.50;;
46781;SDS011;32541;46.298;11.506;2022-12-07T10:29:57;5.18;;;3.15;;
46781;SDS011;32541;46.298;11.506;2022-12-07T10:32:27;7.18;;;2.90;;
46781;SDS011;32541;46.298;11.506;2022-12-07T10:38:07;9.98;;;6.10;;
46781;SDS011;32541;46.298;11.506;2022-12-07T10:40:41;12.15;;;7.30;;
46781;SDS011;32541;46.298;11.506;2022-12-07T10:45:44;14.85;;;6.45;;
46781;SDS011;32541;46.298;11.506;2022-12-07T10:48:29;10.15;;;5.63;;
46781;SDS011;32541;46.298;11.506;2022-12-07T10:53:59;7.63;;;3.40;;
46781;SDS011;32541;46.298;11.506;2022-12-07T11:04:33;8.13;;;3.40;;
46781;SDS011;32541;46.298;11.506;2022-12-07T11:07:07;6.03;;;3.37;;
46781;SDS011;32541;46.298;11.506;2022-12-07T11:20:56;5.70;;;3.10;;
46781;SDS011;32541;46.298;11.506;2022-12-07T11:26:42;11.32;;;3.33;;
46781;SDS011;32541;46.298;11.506;2022-12-07T11:31:28;7.07;;;3.40;;
46781;SDS011;32541;46.298;11.506;2022-12-07T11:34:00;6.28;;;3.05;;
46781;SDS011;32541;46.298;11.506;2022-12-07T11:36:34;4.32;;;2.40;;
46781;SDS011;32541;46.298;11.506;2022-12-07T11:39:03;15.85;;;6.05;;
46781;SDS011;32541;46.298;11.506;2022-12-07T11:41:35;6.40;;;3.00;;
46781;SDS011;32541;46.298;11.506;2022-12-07T11:44:07;11.90;;;4.93;;
46781;SDS011;32541;46.298;11.506;2022-12-07T11:46:47;19.00;;;9.55;;
46781;SDS011;32541;46.298;11.506;2022-12-07T11:49:23;5.13;;;3.33;;
46781;SDS011;32541;46.298;11.506;2022-12-07T11:51:56;11.60;;;5.97;;
46781;SDS011;32541;46.298;11.506;2022-12-07T11:54:28;9.15;;;3.25;;
46781;SDS011;32541;46.298;11.506;2022-12-07T11:57:01;4.40;;;1.20;;
46781;SDS011;32541;46.298;11.506;2022-12-07T11:59:36;2.00;;;0.88;;
46781;SDS011;32541;46.298;11.506;2022-12-07T12:02:14;1.35;;;0.80;;
46781;SDS011;32541;46.298;11.506;2022-12-07T12:07:21;1.67;;;0.60;;
46781;SDS011;32541;46.298;11.506;2022-12-07T12:09:51;2.47;;;1.20;;
46781;SDS011;32541;46.298;11.506;2022-12-07T12:20:50;4.05;;;2.40;;
46781;SDS011;32541;46.298;11.506;2022-12-07T12:24:22;1.63;;;0.82;;
46781;SDS011;32541;46.298;11.506;2022-12-07T12:26:26;2.40;;;1.15;;
46781;SDS011;32541;46.298;11.506;2022-12-07T12:34:01;1.50;;;0.82;;
46781;SDS011;32541;46.298;11.506;2022-12-07T12:36:46;2.95;;;1.10;;
46781;SDS011;32541;46.298;11.506;2022-12-07T12:39:16;2.10;;;1.30;;
46781;SDS011;32541;46.298;11.506;2022-12-07T12:54:21;3.20;;;1.35;;
46781;SDS011;32541;46.298;11.506;2022-12-07T13:02:28;2.65;;;1.35;;
46781;SDS011;32541;46.298;11.506;2022-12-07T13:13:00;5.43;;;1.48;;
46781;SDS011;32541;46.298;11.506;2022-12-07T13:15:46;4.45;;;1.40;;
46781;SDS011;32541;46.298;11.506;2022-12-07T13:23:36;4.25;;;2.10;;
46781;SDS011;32541;46.298;11.506;2022-12-07T13:26:17;4.40;;;1.50;;
46781;SDS011;32541;46.298;11.506;2022-12-07T13:28:58;4.30;;;2.33;;
46781;SDS011;32541;46.298;11.506;2022-12-07T13:34:01;5.63;;;1.90;;
46781;SDS011;32541;46.298;11.506;2022-12-07T13:36:30;3.95;;;2.08;;
46781;SDS011;32541;46.298;11.506;2022-12-07T13:39:10;6.20;;;3.25;;
46781;SDS011;32541;46.298;11.506;2022-12-07T13:41:41;4.05;;;2.13;;
46781;SDS011;32541;46.298;11.506;2022-12-07T13:44:14;5.15;;;1.88;;
46781;SDS011;32541;46.298;11.506;2022-12-07T13:49:15;4.20;;;2.03;;
46781;SDS011;32541;46.298;11.506;2022-12-07T13:51:53;2.65;;;1.60;;
46781;SDS011;32541;46.298;11.506;2022-12-07T13:54:19;3.28;;;1.40;;
46781;SDS011;32541;46.298;11.506;2022-12-07T13:56:54;5.50;;;1.42;;
46781;SDS011;32541;46.298;11.506;2022-12-07T13:59:21;5.07;;;2.50;;
46781;SDS011;32541;46.298;11.506;2022-12-07T14:01:49;3.30;;;1.90;;
46781;SDS011;32541;46.298;11.506;2022-12-07T14:07:23;3.67;;;1.73;;
46781;SDS011;32541;46.298;11.506;2022-12-07T14:09:54;3.90;;;2.17;;
46781;SDS011;32541;46.298;11.506;2022-12-07T14:12:25;7.32;;;2.70;;
46781;SDS011;32541;46.298;11.506;2022-12-07T14:14:51;9.63;;;4.15;;
46781;SDS011;32541;46.298;11.506;2022-12-07T14:17:24;11.85;;;4.93;;
46781;SDS011;32541;46.298;11.506;2022-12-07T14:19:52;11.25;;;5.07;;
46781;SDS011;32541;46.298;11.506;2022-12-07T14:22:26;40.88;;;26.27;;
46781;SDS011;32541;46.298;11.506;2022-12-07T14:27:48;10.45;;;6.50;;
46781;SDS011;32541;46.298;11.506;2022-12-07T14:30:17;8.38;;;6.22;;
46781;SDS011;32541;46.298;11.506;2022-12-07T14:32:44;5.63;;;4.80;;
46781;SDS011;32541;46.298;11.506;2022-12-07T14:35:14;6.10;;;5.15;;
46781;SDS011;32541;46.298;11.506;2022-12-07T14:37:43;7.47;;;6.75;;
46781;SDS011;32541;46.298;11.506;2022-12-07T14:40:14;56.63;;;33.40;;
46781;SDS011;32541;46.298;11.506;2022-12-07T14:42:41;93.70;;;58.85;;
46781;SDS011;32541;46.298;11.506;2022-12-07T14:45:18;24.23;;;17.80;;
46781;SDS011;32541;46.298;11.506;2022-12-07T14:47:46;15.60;;;10.98;;
46781;SDS011;32541;46.298;11.506;2022-12-07T14:50:12;13.40;;;7.75;;
46781;SDS011;32541;46.298;11.506;2022-12-07T14:52:39;9.05;;;6.45;;
46781;SDS011;32541;46.298;11.506;2022-12-07T14:55:13;11.00;;;9.50;;
46781;SDS011;32541;46.298;11.506;2022-12-07T14:57:41;10.32;;;7.70;;
46781;SDS011;32541;46.298;11.506;2022-12-07T15:00:08;18.20;;;9.48;;
46781;SDS011;32541;46.298;11.506;2022-12-07T15:02:38;11.40;;;6.75;;
46781;SDS011;32541;46.298;11.506;2022-12-07T15:05:04;10.35;;;5.43;;
46781;SDS011;32541;46.298;11.506;2022-12-07T15:07:29;14.53;;;8.00;;
46781;SDS011;32541;46.298;11.506;2022-12-07T15:09:55;18.05;;;9.85;;
46781;SDS011;32541;46.298;11.506;2022-12-07T15:12:20;12.33;;;8.67;;
46781;SDS011;32541;46.298;11.506;2022-12-07T15:14:46;12.20;;;10.40;;
46781;SDS011;32541;46.298;11.506;2022-12-07T15:17:11;27.10;;;23.37;;
46781;SDS011;32541;46.298;11.506;2022-12-07T15:19:37;37.50;;;27.70;;
46781;SDS011;32541;46.298;11.506;2022-12-07T15:22:03;15.90;;;10.77;;
46781;SDS011;32541;46.298;11.506;2022-12-07T15:24:28;20.13;;;9.60;;
46781;SDS011;32541;46.298;11.506;2022-12-07T15:26:53;18.10;;;9.20;;
46781;SDS011;32541;46.298;11.506;2022-12-07T15:29:19;15.17;;;8.50;;
46781;SDS011;32541;46.298;11.506;2022-12-07T15:31:45;14.43;;;7.80;;
46781;SDS011;32541;46.298;11.506;2022-12-07T15:34:10;13.93;;;7.33;;
46781;SDS011;32541;46.298;11.506;2022-12-07T15:36:36;11.23;;;7.10;;
46781;SDS011;32541;46.298;11.506;2022-12-07T15:39:01;15.27;;;7.30;;
46781;SDS011;32541;46.298;11.506;2022-12-07T15:41:27;18.27;;;9.67;;
46781;SDS011;32541;46.298;11.506;2022-12-07T15:43:52;29.83;;;14.13;;
46781;SDS011;32541;46.298;11.506;2022-12-07T15:46:37;28.33;;;13.33;;
46781;SDS011;32541;46.298;11.506;2022-12-07T15:49:06;49.10;;;40.63;;
46781;SDS011;32541;46.298;11.506;2022-12-07T15:51:38;24.50;;;14.33;;
46781;SDS011;32541;46.298;11.506;2022-12-07T15:54:04;9.53;;;3.67;;
46781;SDS011;32541;46.298;11.506;2022-12-07T15:56:30;7.23;;;4.73;;
46781;SDS011;32541;46.298;11.506;2022-12-07T15:58:55;15.33;;;7.10;;
46781;SDS011;32541;46.298;11.506;2022-12-07T16:01:22;9.73;;;5.53;;
46781;SDS011;32541;46.298;11.506;2022-12-07T16:03:47;9.13;;;5.10;;
46781;SDS011;32541;46.298;11.506;2022-12-07T16:06:15;5.90;;;4.17;;
46781;SDS011;32541;46.298;11.506;2022-12-07T16:08:45;19.47;;;17.37;;
46781;SDS011;32541;46.298;11.506;2022-12-07T16:11:11;23.93;;;12.53;;
46781;SDS011;32541;46.298;11.506;2022-12-07T16:13:37;13.43;;;8.13;;
46781;SDS011;32541;46.298;11.506;2022-12-07T16:16:08;10.27;;;5.80;;
46781;SDS011;32541;46.298;11.506;2022-12-07T16:18:37;11.00;;;5.87;;
46781;SDS011;32541;46.298;11.506;2022-12-07T16:21:03;17.10;;;8.37;;
46781;SDS011;32541;46.298;11.506;2022-12-07T16:23:29;14.20;;;7.27;;
46781;SDS011;32541;46.298;11.506;2022-12-07T16:26:03;35.47;;;14.40;;
46781;SDS011;32541;46.298;11.506;2022-12-07T16:28:29;14.20;;;7.33;;
46781;SDS011;32541;46.298;11.506;2022-12-07T16:31:04;59.07;;;36.50;;
46781;SDS011;32541;46.298;11.506;2022-12-07T16:33:33;41.37;;;23.73;;
46781;SDS011;32541;46.298;11.506;2022-12-07T16:36:00;55.63;;;29.13;;
46781;SDS011;32541;46.298;11.506;2022-12-07T16:38:26;26.63;;;14.20;;
46781;SDS011;32541;46.298;11.506;2022-12-07T16:40:52;29.33;;;17.47;;
46781;SDS011;32541;46.298;11.506;2022-12-07T16:43:18;54.83;;;32.50;;
46781;SDS011;32541;46.298;11.506;2022-12-07T16:45:44;49.80;;;26.37;;
46781;SDS011;32541;46.298;11.506;2022-12-07T16:48:11;28.57;;;15.47;;
46781;SDS011;32541;46.298;11.506;2022-12-07T16:50:38;54.77;;;28.67;;
46781;SDS011;32541;46.298;11.506;2022-12-07T16:53:06;30.63;;;18.30;;
46781;SDS011;32541;46.298;11.506;2022-12-07T16:55:34;36.67;;;20.77;;